Terminal Aerodrome Forecast
Issued by NWS

Home | Current Version | Previous Version | Text Only | Print | Product List | Glossary On
Versions: 1 2 3 4 5 6 7 8 9 10 11 12 13 14 15 16 17 18 19 20 21 22 23 24 25 26 27 28 29 30 31 32 33 34 35 36 37 38 39 40 41 42 43 44 45 46 47 48 49 50
000
FTUS45 KGJT 202331
TAFRIL
TAF
KRIL 202331Z 2100/2124 24008KT P6SM -SHRA FEW045 SCT070
      TEMPO 2100/2102 VRB17G27KT -SHRA BKN060
     FM210200 VRB03KT P6SM SCT150
     FM211900 28007KT P6SM SCT080=

USA.gov is the U.S. government's official web portal to all federal, state and local government web resources and services.